Anzoras — EAZC — position and weather

sailwx.info

Track history (hours):
 
Tides and Currents Weather Stations Pressure Air Temp Water Temp Dewpoint Dewpoint Depression Visibility Wind Speed Wind Dir Waves Ship Positions

Anzoras

Last reported at 2017-Jun-24 13:00 UTC. Time now 2017-Jun-24 22:36 UTC.
Position N 43°48' W 005°49'.

Length 100 m; draft 4.3 m.

Type: Cargo ship. MMSI: 224376000.

Date/timePositionNaut miles runAvg speedWind from/ knotsBaromVisibWave heightAir tempDewpointWater temp
2017-Jun-24 13:00N 43°48' W 005°49'510.3
2017-Jun-24 12:29N 43°48' W 005°42'510.1
2017-Jun-24 11:58N 43°48' W 005°35'710.8
2017-Jun-24 11:18N 43°48' W 005°25'410.7
2017-Jun-24 10:55N 43°48' W 005°19'15210.8
2017-Jun-23 20:52N 43°34' W 001°50'410.8
2017-Jun-23 20:30N 43°33' W 001°45'510.8
2017-Jun-23 20:00N 43°33' W 001°37'5 9.0
2017-Jun-23 19:30N 43°32' W 001°31'1 0.1
2017-Jun-23 10:33N 43°32' W 001°30'0 0.0
2017-Jun-23 10:03N 43°32' W 001°30'0 0.0
2017-Jun-23 07:18N 43°32' W 001°30'1 3.9
2017-Jun-23 06:57N 43°32' W 001°32'5311.4
2017-Jun-23 02:19N 44°25' W 001°34'412.0
2017-Jun-23 02:00N 44°28' W 001°34'612.1
2017-Jun-23 01:30N 44°34' W 001°33'612.1
2017-Jun-23 01:00N 44°40' W 001°33'612.2
2017-Jun-23 00:30N 44°46' W 001°33'612.0
2017-Jun-23 00:00N 44°52' W 001°33'5911.8
2017-Jun-22 19:01N 45°51' W 001°33'011.9
2017-Jun-22 19:00N 45°51' W 001°33'812.2
2017-Jun-22 18:20N 45°59' W 001°33'511.5
2017-Jun-22 17:55N 46°04' W 001°31'513.0
2017-Jun-22 17:31N 46°06' W 001°24'811.1
2017-Jun-22 16:50N 46°03' W 001°14'410.6
2017-Jun-22 16:26N 45°60' W 001°10'610.8
2017-Jun-22 15:56N 45°57' W 001°03'2 5.7
2017-Jun-22 15:30N 45°57' W 000°60'2 0.3
2017-Jun-22 09:16N 45°57' W 000°57'0 0.0
2017-Jun-22 08:22N 45°57' W 000°57'0 0.0
2017-Jun-22 07:58N 45°57' W 000°57'0 0.0
2017-Jun-22 07:28N 45°57' W 000°57'0 0.0
2017-Jun-22 06:58N 45°57' W 000°57'0 0.0
2017-Jun-22 06:28N 45°57' W 000°57'0 0.0
2017-Jun-22 05:07N 45°57' W 000°57'0 0.0
2017-Jun-22 04:46N 45°57' W 000°57'0 0.0
2017-Jun-22 04:28N 45°57' W 000°57'0 0.0
2017-Jun-22 03:43N 45°57' W 000°57'0 0.0
2017-Jun-22 03:25N 45°57' W 000°57'0 0.0
2017-Jun-22 02:34N 45°57' W 000°57'0 0.0
2017-Jun-22 02:25N 45°57' W 000°57'0 0.0
2017-Jun-22 01:55N 45°57' W 000°57'0 0.0
2017-Jun-22 01:28N 45°57' W 000°57'0 0.0
2017-Jun-22 00:55N 45°57' W 000°57'0 0.0
2017-Jun-22 00:28N 45°57' W 000°57'0 0.0
2017-Jun-21 23:49N 45°57' W 000°57'0 0.0
2017-Jun-21 23:28N 45°57' W 000°57'0 0.0
2017-Jun-21 22:58N 45°57' W 000°57'0 0.0
2017-Jun-21 22:19N 45°57' W 000°57'0 0.0
2017-Jun-21 21:58N 45°57' W 000°57'0 0.0
2017-Jun-21 20:10N 45°57' W 000°57'0 0.0
2017-Jun-21 19:49N 45°57' W 000°57'0 0.0
2017-Jun-21 18:52N 45°57' W 000°57'0 0.0
2017-Jun-21 18:16N 45°57' W 000°57'0 0.0
2017-Jun-21 17:58N 45°57' W 000°57'0 0.0
2017-Jun-21 17:19N 45°57' W 000°57'0 0.0
2017-Jun-21 15:34N 45°57' W 000°57'0 0.0
2017-Jun-21 15:16N 45°57' W 000°57'0 0.0
2017-Jun-21 14:58N 45°57' W 000°57'0 0.0
2017-Jun-21 07:16N 45°57' W 000°57'0 0.0
2017-Jun-21 06:22N 45°57' W 000°57'0 0.0
2017-Jun-21 05:19N 45°57' W 000°57'0 0.0
2017-Jun-21 04:55N 45°57' W 000°57'0 0.0
2017-Jun-21 04:28N 45°57' W 000°57'0 0.0
2017-Jun-21 03:40N 45°57' W 000°57'0 0.0
2017-Jun-21 03:28N 45°57' W 000°57'0 0.0
2017-Jun-21 02:49N 45°57' W 000°57'0 0.0
2017-Jun-21 02:28N 45°57' W 000°57'0 0.0
2017-Jun-21 01:58N 45°57' W 000°57'0 0.0
2017-Jun-21 01:25N 45°57' W 000°57'0 0.0
2017-Jun-21 00:55N 45°57' W 000°57'0 0.0
2017-Jun-21 00:28N 45°57' W 000°57'0 0.0
2017-Jun-20 23:58N 45°57' W 000°57'0 0.0
2017-Jun-20 23:22N 45°57' W 000°57'0 0.0
2017-Jun-20 22:52N 45°57' W 000°57'0 0.0
2017-Jun-20 22:07N 45°57' W 000°57'0 0.0
2017-Jun-20 19:49N 45°57' W 000°57'2 0.1
2017-Jun-20 00:17N 45°55' W 000°59'2 6.1
2017-Jun-19 23:57N 45°57' W 001°00'2 3.9
2017-Jun-19 23:25N 45°57' W 001°03'3 8.1
2017-Jun-19 23:01N 45°59' W 001°07'510.0
2017-Jun-19 22:30N 46°02' W 001°13'510.0
2017-Jun-19 22:01N 46°05' W 001°19'5 9.9
2017-Jun-19 21:30N 46°07' W 001°25'510.9
2017-Jun-19 21:00N 46°08' W 001°33'0 0.4
2017-Jun-19 20:30N 46°08' W 001°33'4 8.2
2017-Jun-19 20:00N 46°09' W 001°38'2 3.0
2017-Jun-19 19:27N 46°09' W 001°40'3 7.6
2017-Jun-19 19:01N 46°06' W 001°42'5 7.1
2017-Jun-19 18:21N 46°02' W 001°46'3 6.9
2017-Jun-19 17:58N 46°02' W 001°49'3 6.2
2017-Jun-19 17:29N 46°04' W 001°52'4 9.1
2017-Jun-19 17:00N 46°04' W 001°58'90 9.5
2017-Jun-19 07:36N 45°19' W 003°49'410.9
2017-Jun-19 07:13N 45°17' W 003°55'351 9.3
2017-Jun-17 17:29N 41°19' W 009°49'510.4
2017-Jun-17 17:00N 41°14' W 009°49'510.3
2017-Jun-17 16:30N 41°09' W 009°49'510.2
2017-Jun-17 16:00N 41°04' W 009°49'2210.3
2017-Jun-17 13:50N 40°42' W 009°51'310.2
2017-Jun-17 13:30N 40°38' W 009°51'1710.4
2017-Jun-17 11:52N 40°21' W 009°50'1510.1
2017-Jun-17 10:25N 40°07' W 009°50'410.4
2017-Jun-17 10:00N 40°03' W 009°50'710.5
2017-Jun-17 09:21N 39°56' W 009°50'410.6
2017-Jun-17 09:00N 39°52' W 009°50'510.5
2017-Jun-17 08:30N 39°47' W 009°51'510.6
2017-Jun-17 08:00N 39°41' W 009°51'510.5
2017-Jun-17 07:30N 39°36' W 009°51'510.4
2017-Jun-17 07:00N 39°31' W 009°51'510.3
2017-Jun-17 06:30N 39°26' W 009°51'510.1
2017-Jun-17 06:00N 39°21' W 009°51'510.5
2017-Jun-17 05:30N 39°15' W 009°51'510.9
2017-Jun-17 05:00N 39°10' W 009°51'510.4
2017-Jun-17 04:30N 39°05' W 009°51'510.4
2017-Jun-17 04:00N 38°60' W 009°51'510.4
2017-Jun-17 03:30N 38°54' W 009°52'510.2
2017-Jun-17 03:00N 38°49' W 009°52'510.4
2017-Jun-17 02:30N 38°44' W 009°51'5 9.9
2017-Jun-17 02:00N 38°39' W 009°50'5 9.5
2017-Jun-17 01:30N 38°35' W 009°49'5 9.4
2017-Jun-17 01:00N 38°30' W 009°48'5 9.6
2017-Jun-17 00:30N 38°25' W 009°46'5 9.5
2017-Jun-17 00:00N 38°21' W 009°45'5 9.1
2017-Jun-16 23:30N 38°16' W 009°44'5 9.3
2017-Jun-16 23:00N 38°12' W 009°42'5 9.0
2017-Jun-16 22:30N 38°07' W 009°41'4 8.9
2017-Jun-16 22:00N 38°03' W 009°40'5 9.0
2017-Jun-16 21:30N 37°59' W 009°38'5 9.0
2017-Jun-16 21:00N 37°54' W 009°37'4 9.0
2017-Jun-16 20:30N 37°50' W 009°36'4 8.9
2017-Jun-16 20:00N 37°45' W 009°35'5 9.1
2017-Jun-16 19:30N 37°41' W 009°34'5 9.2
2017-Jun-16 19:00N 37°37' W 009°32'5 9.7
2017-Jun-16 18:30N 37°32' W 009°31'5 9.5
2017-Jun-16 18:00N 37°27' W 009°30'4 9.2
2017-Jun-16 17:30N 37°23' W 009°28'5 9.2
2017-Jun-16 17:00N 37°18' W 009°27'5 9.6
2017-Jun-16 16:30N 37°14' W 009°25'5 9.3
2017-Jun-16 16:00N 37°09' W 009°24'5 9.4
2017-Jun-16 15:30N 37°04' W 009°23'5 9.5
2017-Jun-16 15:00N 36°60' W 009°21'5 9.7
2017-Jun-16 14:30N 36°55' W 009°20'10 9.3
2017-Jun-16 13:28N 36°48' W 009°12'18 9.1
2017-Jun-16 11:26N 36°34' W 008°56'4 9.9
2017-Jun-16 11:00N 36°31' W 008°54'  
Track history (hours):
 
Tides and Currents Weather Stations Pressure Air Temp Water Temp Dewpoint Dewpoint Depression Visibility Wind Speed Wind Dir Waves Ship Positions

Anzoras

Last reported at 2017-Jun-24 13:00 UTC. Time now 2017-Jun-24 22:36 UTC.
Position N 43°48' W 005°49'.

Length 100 m; draft 4.3 m.

Type: Cargo ship. MMSI: 224376000.

Date/timePositionNaut miles runAvg speedWind from/ knotsBaromVisibWave heightAir tempDewpointWater temp
2017-Jun-24 13:00N 43°48' W 005°49'510.3
2017-Jun-24 12:29N 43°48' W 005°42'510.1
2017-Jun-24 11:58N 43°48' W 005°35'710.8
2017-Jun-24 11:18N 43°48' W 005°25'410.7
2017-Jun-24 10:55N 43°48' W 005°19'15210.8
2017-Jun-23 20:52N 43°34' W 001°50'410.8
2017-Jun-23 20:30N 43°33' W 001°45'510.8
2017-Jun-23 20:00N 43°33' W 001°37'5 9.0
2017-Jun-23 19:30N 43°32' W 001°31'1 0.1
2017-Jun-23 10:33N 43°32' W 001°30'0 0.0
2017-Jun-23 10:03N 43°32' W 001°30'0 0.0
2017-Jun-23 07:18N 43°32' W 001°30'1 3.9
2017-Jun-23 06:57N 43°32' W 001°32'5311.4
2017-Jun-23 02:19N 44°25' W 001°34'412.0
2017-Jun-23 02:00N 44°28' W 001°34'612.1
2017-Jun-23 01:30N 44°34' W 001°33'612.1
2017-Jun-23 01:00N 44°40' W 001°33'612.2
2017-Jun-23 00:30N 44°46' W 001°33'612.0
2017-Jun-23 00:00N 44°52' W 001°33'5911.8
2017-Jun-22 19:01N 45°51' W 001°33'011.9
2017-Jun-22 19:00N 45°51' W 001°33'812.2
2017-Jun-22 18:20N 45°59' W 001°33'511.5
2017-Jun-22 17:55N 46°04' W 001°31'513.0
2017-Jun-22 17:31N 46°06' W 001°24'811.1
2017-Jun-22 16:50N 46°03' W 001°14'410.6
2017-Jun-22 16:26N 45°60' W 001°10'610.8
2017-Jun-22 15:56N 45°57' W 001°03'2 5.7
2017-Jun-22 15:30N 45°57' W 000°60'2 0.3
2017-Jun-22 09:16N 45°57' W 000°57'0 0.0
2017-Jun-22 08:22N 45°57' W 000°57'0 0.0
2017-Jun-22 07:58N 45°57' W 000°57'0 0.0
2017-Jun-22 07:28N 45°57' W 000°57'0 0.0
2017-Jun-22 06:58N 45°57' W 000°57'0 0.0
2017-Jun-22 06:28N 45°57' W 000°57'0 0.0
2017-Jun-22 05:07N 45°57' W 000°57'0 0.0
2017-Jun-22 04:46N 45°57' W 000°57'0 0.0
2017-Jun-22 04:28N 45°57' W 000°57'0 0.0
2017-Jun-22 03:43N 45°57' W 000°57'0 0.0
2017-Jun-22 03:25N 45°57' W 000°57'0 0.0
2017-Jun-22 02:34N 45°57' W 000°57'0 0.0
2017-Jun-22 02:25N 45°57' W 000°57'0 0.0
2017-Jun-22 01:55N 45°57' W 000°57'0 0.0
2017-Jun-22 01:28N 45°57' W 000°57'0 0.0
2017-Jun-22 00:55N 45°57' W 000°57'0 0.0
2017-Jun-22 00:28N 45°57' W 000°57'0 0.0
2017-Jun-21 23:49N 45°57' W 000°57'0 0.0
2017-Jun-21 23:28N 45°57' W 000°57'0 0.0
2017-Jun-21 22:58N 45°57' W 000°57'0 0.0
2017-Jun-21 22:19N 45°57' W 000°57'0 0.0
2017-Jun-21 21:58N 45°57' W 000°57'0 0.0
2017-Jun-21 20:10N 45°57' W 000°57'0 0.0
2017-Jun-21 19:49N 45°57' W 000°57'0 0.0
2017-Jun-21 18:52N 45°57' W 000°57'0 0.0
2017-Jun-21 18:16N 45°57' W 000°57'0 0.0
2017-Jun-21 17:58N 45°57' W 000°57'0 0.0
2017-Jun-21 17:19N 45°57' W 000°57'0 0.0
2017-Jun-21 15:34N 45°57' W 000°57'0 0.0
2017-Jun-21 15:16N 45°57' W 000°57'0 0.0
2017-Jun-21 14:58N 45°57' W 000°57'0 0.0
2017-Jun-21 07:16N 45°57' W 000°57'0 0.0
2017-Jun-21 06:22N 45°57' W 000°57'0 0.0
2017-Jun-21 05:19N 45°57' W 000°57'0 0.0
2017-Jun-21 04:55N 45°57' W 000°57'0 0.0
2017-Jun-21 04:28N 45°57' W 000°57'0 0.0
2017-Jun-21 03:40N 45°57' W 000°57'0 0.0
2017-Jun-21 03:28N 45°57' W 000°57'0 0.0
2017-Jun-21 02:49N 45°57' W 000°57'0 0.0
2017-Jun-21 02:28N 45°57' W 000°57'0 0.0
2017-Jun-21 01:58N 45°57' W 000°57'0 0.0
2017-Jun-21 01:25N 45°57' W 000°57'0 0.0
2017-Jun-21 00:55N 45°57' W 000°57'0 0.0
2017-Jun-21 00:28N 45°57' W 000°57'0 0.0
2017-Jun-20 23:58N 45°57' W 000°57'0 0.0
2017-Jun-20 23:22N 45°57' W 000°57'0 0.0
2017-Jun-20 22:52N 45°57' W 000°57'0 0.0
2017-Jun-20 22:07N 45°57' W 000°57'0 0.0
2017-Jun-20 19:49N 45°57' W 000°57'2 0.1
2017-Jun-20 00:17N 45°55' W 000°59'2 6.1
2017-Jun-19 23:57N 45°57' W 001°00'2 3.9
2017-Jun-19 23:25N 45°57' W 001°03'3 8.1
2017-Jun-19 23:01N 45°59' W 001°07'510.0
2017-Jun-19 22:30N 46°02' W 001°13'510.0
2017-Jun-19 22:01N 46°05' W 001°19'5 9.9
2017-Jun-19 21:30N 46°07' W 001°25'510.9
2017-Jun-19 21:00N 46°08' W 001°33'0 0.4
2017-Jun-19 20:30N 46°08' W 001°33'4 8.2
2017-Jun-19 20:00N 46°09' W 001°38'2 3.0
2017-Jun-19 19:27N 46°09' W 001°40'3 7.6
2017-Jun-19 19:01N 46°06' W 001°42'5 7.1
2017-Jun-19 18:21N 46°02' W 001°46'3 6.9
2017-Jun-19 17:58N 46°02' W 001°49'3 6.2
2017-Jun-19 17:29N 46°04' W 001°52'4 9.1
2017-Jun-19 17:00N 46°04' W 001°58'90 9.5
2017-Jun-19 07:36N 45°19' W 003°49'410.9
2017-Jun-19 07:13N 45°17' W 003°55'351 9.3
2017-Jun-17 17:29N 41°19' W 009°49'510.4
2017-Jun-17 17:00N 41°14' W 009°49'510.3
2017-Jun-17 16:30N 41°09' W 009°49'510.2
2017-Jun-17 16:00N 41°04' W 009°49'2210.3
2017-Jun-17 13:50N 40°42' W 009°51'310.2
2017-Jun-17 13:30N 40°38' W 009°51'1710.4
2017-Jun-17 11:52N 40°21' W 009°50'1510.1
2017-Jun-17 10:25N 40°07' W 009°50'410.4
2017-Jun-17 10:00N 40°03' W 009°50'710.5
2017-Jun-17 09:21N 39°56' W 009°50'410.6
2017-Jun-17 09:00N 39°52' W 009°50'510.5
2017-Jun-17 08:30N 39°47' W 009°51'510.6
2017-Jun-17 08:00N 39°41' W 009°51'510.5
2017-Jun-17 07:30N 39°36' W 009°51'510.4
2017-Jun-17 07:00N 39°31' W 009°51'510.3
2017-Jun-17 06:30N 39°26' W 009°51'510.1
2017-Jun-17 06:00N 39°21' W 009°51'510.5
2017-Jun-17 05:30N 39°15' W 009°51'510.9
2017-Jun-17 05:00N 39°10' W 009°51'510.4
2017-Jun-17 04:30N 39°05' W 009°51'510.4
2017-Jun-17 04:00N 38°60' W 009°51'510.4
2017-Jun-17 03:30N 38°54' W 009°52'510.2
2017-Jun-17 03:00N 38°49' W 009°52'510.4
2017-Jun-17 02:30N 38°44' W 009°51'5 9.9
2017-Jun-17 02:00N 38°39' W 009°50'5 9.5
2017-Jun-17 01:30N 38°35' W 009°49'5 9.4
2017-Jun-17 01:00N 38°30' W 009°48'5 9.6
2017-Jun-17 00:30N 38°25' W 009°46'5 9.5
2017-Jun-17 00:00N 38°21' W 009°45'5 9.1
2017-Jun-16 23:30N 38°16' W 009°44'5 9.3
2017-Jun-16 23:00N 38°12' W 009°42'5 9.0
2017-Jun-16 22:30N 38°07' W 009°41'4 8.9
2017-Jun-16 22:00N 38°03' W 009°40'5 9.0
2017-Jun-16 21:30N 37°59' W 009°38'5 9.0
2017-Jun-16 21:00N 37°54' W 009°37'4 9.0
2017-Jun-16 20:30N 37°50' W 009°36'4 8.9
2017-Jun-16 20:00N 37°45' W 009°35'5 9.1
2017-Jun-16 19:30N 37°41' W 009°34'5 9.2
2017-Jun-16 19:00N 37°37' W 009°32'5 9.7
2017-Jun-16 18:30N 37°32' W 009°31'5 9.5
2017-Jun-16 18:00N 37°27' W 009°30'4 9.2
2017-Jun-16 17:30N 37°23' W 009°28'5 9.2
2017-Jun-16 17:00N 37°18' W 009°27'5 9.6
2017-Jun-16 16:30N 37°14' W 009°25'5 9.3
2017-Jun-16 16:00N 37°09' W 009°24'5 9.4
2017-Jun-16 15:30N 37°04' W 009°23'5 9.5
2017-Jun-16 15:00N 36°60' W 009°21'5 9.7
2017-Jun-16 14:30N 36°55' W 009°20'10 9.3
2017-Jun-16 13:28N 36°48' W 009°12'18 9.1
2017-Jun-16 11:26N 36°34' W 008°56'4 9.9
2017-Jun-16 11:00N 36°31' W 008°54'  

Dump ship's entire track history